sensor_id;sensor_type;location;lat;lon;timestamp;P1;P2;P0
55549;PMS7003;41397;49.972;18.944;2023-02-22T00:01:10;37;32;21
55549;PMS7003;41397;49.972;18.944;2023-02-22T00:04:28;38;33;21
55549;PMS7003;41397;49.972;18.944;2023-02-22T00:07:30;38;32;21
55549;PMS7003;41397;49.972;18.944;2023-02-22T00:10:31;31;28;22
55549;PMS7003;41397;49.972;18.944;2023-02-22T00:13:33;38;33;23
55549;PMS7003;41397;49.972;18.944;2023-02-22T00:16:36;44;33;22
55549;PMS7003;41397;49.972;18.944;2023-02-22T00:19:37;26;21;16
55549;PMS7003;41397;49.972;18.944;2023-02-22T00:26:18;28;27;17
55549;PMS7003;41397;49.972;18.944;2023-02-22T00:29:23;22;22;14
55549;PMS7003;41397;49.972;18.944;2023-02-22T00:32:25;24;23;15
55549;PMS7003;41397;49.972;18.944;2023-02-22T00:35:28;21;19;14
55549;PMS7003;41397;49.972;18.944;2023-02-22T00:38:30;17;17;13
55549;PMS7003;41397;49.972;18.944;2023-02-22T00:41:32;22;21;12
55549;PMS7003;41397;49.972;18.944;2023-02-22T00:44:33;16;16;12
55549;PMS7003;41397;49.972;18.944;2023-02-22T00:47:35;13;13;9
55549;PMS7003;41397;49.972;18.944;2023-02-22T00:50:36;19;19;14
55549;PMS7003;41397;49.972;18.944;2023-02-22T00:53:38;22;22;15
55549;PMS7003;41397;49.972;18.944;2023-02-22T00:56:39;29;24;12
55549;PMS7003;41397;49.972;18.944;2023-02-22T00:59:41;19;17;13
55549;PMS7003;41397;49.972;18.944;2023-02-22T01:02:43;22;22;13
55549;PMS7003;41397;49.972;18.944;2023-02-22T01:05:45;17;17;10
55549;PMS7003;41397;49.972;18.944;2023-02-22T01:08:47;18;14;11
55549;PMS7003;41397;49.972;18.944;2023-02-22T01:11:53;19;19;12
55549;PMS7003;41397;49.972;18.944;2023-02-22T01:14:56;16;16;9
55549;PMS7003;41397;49.972;18.944;2023-02-22T01:17:58;25;25;19
55549;PMS7003;41397;49.972;18.944;2023-02-22T01:20:59;39;33;19
55549;PMS7003;41397;49.972;18.944;2023-02-22T01:24:02;45;38;25
55549;PMS7003;41397;49.972;18.944;2023-02-22T01:27:03;41;34;22
55549;PMS7003;41397;49.972;18.944;2023-02-22T01:30:05;59;44;28
55549;PMS7003;41397;49.972;18.944;2023-02-22T01:33:08;46;39;27
55549;PMS7003;41397;49.972;18.944;2023-02-22T01:36:12;51;43;28
55549;PMS7003;41397;49.972;18.944;2023-02-22T01:39:14;48;40;24
55549;PMS7003;41397;49.972;18.944;2023-02-22T01:42:17;49;39;27
55549;PMS7003;41397;49.972;18.944;2023-02-22T01:48:37;52;44;29
55549;PMS7003;41397;49.972;18.944;2023-02-22T01:51:46;52;42;28
55549;PMS7003;41397;49.972;18.944;2023-02-22T01:54:54;54;45;28
55549;PMS7003;41397;49.972;18.944;2023-02-22T01:57:58;48;41;26
55549;PMS7003;41397;49.972;18.944;2023-02-22T02:01:01;52;44;28
55549;PMS7003;41397;49.972;18.944;2023-02-22T02:04:03;59;48;30
55549;PMS7003;41397;49.972;18.944;2023-02-22T02:07:10;66;48;33
55549;PMS7003;41397;49.972;18.944;2023-02-22T02:10:17;57;46;29
55549;PMS7003;41397;49.972;18.944;2023-02-22T02:13:19;41;36;24
55549;PMS7003;41397;49.972;18.944;2023-02-22T02:16:24;50;42;26
55549;PMS7003;41397;49.972;18.944;2023-02-22T02:29:32;44;37;25
55549;PMS7003;41397;49.972;18.944;2023-02-22T02:39:07;46;37;24
55549;PMS7003;41397;49.972;18.944;2023-02-22T02:42:17;45;39;25
55549;PMS7003;41397;49.972;18.944;2023-02-22T02:45:28;46;39;26
55549;PMS7003;41397;49.972;18.944;2023-02-22T02:48:36;45;38;25
55549;PMS7003;41397;49.972;18.944;2023-02-22T02:51:43;48;41;24
55549;PMS7003;41397;49.972;18.944;2023-02-22T02:54:51;48;41;26
55549;PMS7003;41397;49.972;18.944;2023-02-22T02:57:55;38;33;25
55549;PMS7003;41397;49.972;18.944;2023-02-22T03:00:57;42;37;24
55549;PMS7003;41397;49.972;18.944;2023-02-22T03:07:22;55;45;31
55549;PMS7003;41397;49.972;18.944;2023-02-22T03:23:36;50;42;26
55549;PMS7003;41397;49.972;18.944;2023-02-22T03:29:58;48;40;25
55549;PMS7003;41397;49.972;18.944;2023-02-22T03:33:14;52;42;27
55549;PMS7003;41397;49.972;18.944;2023-02-22T03:36:22;52;43;26
55549;PMS7003;41397;49.972;18.944;2023-02-22T03:39:28;53;41;28
55549;PMS7003;41397;49.972;18.944;2023-02-22T03:42:32;47;39;26
55549;PMS7003;41397;49.972;18.944;2023-02-22T03:45:37;51;43;28
55549;PMS7003;41397;49.972;18.944;2023-02-22T03:51:54;59;46;30
55549;PMS7003;41397;49.972;18.944;2023-02-22T03:54:56;54;45;29
55549;PMS7003;41397;49.972;18.944;2023-02-22T03:57:58;53;41;28
55549;PMS7003;41397;49.972;18.944;2023-02-22T04:01:04;49;41;25
55549;PMS7003;41397;49.972;18.944;2023-02-22T04:04:10;48;40;27
55549;PMS7003;41397;49.972;18.944;2023-02-22T04:07:11;49;41;27
55549;PMS7003;41397;49.972;18.944;2023-02-22T04:10:14;46;38;26
55549;PMS7003;41397;49.972;18.944;2023-02-22T04:13:15;46;39;24
55549;PMS7003;41397;49.972;18.944;2023-02-22T04:16:18;50;41;28
55549;PMS7003;41397;49.972;18.944;2023-02-22T04:19:19;45;38;27
55549;PMS7003;41397;49.972;18.944;2023-02-22T04:22:21;47;38;25
55549;PMS7003;41397;49.972;18.944;2023-02-22T04:25:23;49;41;27
55549;PMS7003;41397;49.972;18.944;2023-02-22T04:28:26;37;33;16
55549;PMS7003;41397;49.972;18.944;2023-02-22T04:31:28;47;39;26
55549;PMS7003;41397;49.972;18.944;2023-02-22T04:34:29;44;38;26
55549;PMS7003;41397;49.972;18.944;2023-02-22T04:37:30;54;43;27
55549;PMS7003;41397;49.972;18.944;2023-02-22T04:40:34;49;41;27
55549;PMS7003;41397;49.972;18.944;2023-02-22T04:43:36;53;44;27
55549;PMS7003;41397;49.972;18.944;2023-02-22T04:46:37;53;44;29
55549;PMS7003;41397;49.972;18.944;2023-02-22T04:49:38;61;48;29
55549;PMS7003;41397;49.972;18.944;2023-02-22T04:52:42;60;49;30
55549;PMS7003;41397;49.972;18.944;2023-02-22T04:55:45;59;50;34
55549;PMS7003;41397;49.972;18.944;2023-02-22T04:58:46;59;51;28
55549;PMS7003;41397;49.972;18.944;2023-02-22T05:01:48;55;43;27
55549;PMS7003;41397;49.972;18.944;2023-02-22T05:04:50;57;44;30
55549;PMS7003;41397;49.972;18.944;2023-02-22T05:07:52;57;45;29
55549;PMS7003;41397;49.972;18.944;2023-02-22T05:10:53;59;46;29
55549;PMS7003;41397;49.972;18.944;2023-02-22T05:13:55;62;52;32
55549;PMS7003;41397;49.972;18.944;2023-02-22T05:20:50;67;63;37
55549;PMS7003;41397;49.972;18.944;2023-02-22T05:24:07;64;55;34
55549;PMS7003;41397;49.972;18.944;2023-02-22T05:27:14;79;72;45
55549;PMS7003;41397;49.972;18.944;2023-02-22T05:34:01;66;56;36
55549;PMS7003;41397;49.972;18.944;2023-02-22T05:37:13;67;62;35
55549;PMS7003;41397;49.972;18.944;2023-02-22T05:50:52;91;77;44
55549;PMS7003;41397;49.972;18.944;2023-02-22T05:54:13;82;78;50
55549;PMS7003;41397;49.972;18.944;2023-02-22T05:57:15;82;74;41
55549;PMS7003;41397;49.972;18.944;2023-02-22T06:03:42;82;76;39
55549;PMS7003;41397;49.972;18.944;2023-02-22T06:06:48;83;82;49
55549;PMS7003;41397;49.972;18.944;2023-02-22T06:09:49;79;75;47
55549;PMS7003;41397;49.972;18.944;2023-02-22T06:13:13;86;79;51
55549;PMS7003;41397;49.972;18.944;2023-02-22T06:16:16;74;67;42
55549;PMS7003;41397;49.972;18.944;2023-02-22T06:19:18;81;79;47
55549;PMS7003;41397;49.972;18.944;2023-02-22T06:22:19;80;75;47
55549;PMS7003;41397;49.972;18.944;2023-02-22T06:25:22;102;93;51
55549;PMS7003;41397;49.972;18.944;2023-02-22T06:28:25;82;73;50
55549;PMS7003;41397;49.972;18.944;2023-02-22T06:31:27;78;72;43
55549;PMS7003;41397;49.972;18.944;2023-02-22T06:34:28;79;70;48
55549;PMS7003;41397;49.972;18.944;2023-02-22T06:37:30;86;80;53
55549;PMS7003;41397;49.972;18.944;2023-02-22T06:40:31;82;76;41
55549;PMS7003;41397;49.972;18.944;2023-02-22T06:43:33;94;79;41
55549;PMS7003;41397;49.972;18.944;2023-02-22T06:46:34;83;74;41
55549;PMS7003;41397;49.972;18.944;2023-02-22T06:49:36;83;77;43
55549;PMS7003;41397;49.972;18.944;2023-02-22T06:52:41;93;78;43
55549;PMS7003;41397;49.972;18.944;2023-02-22T06:55:43;77;72;43
55549;PMS7003;41397;49.972;18.944;2023-02-22T06:58:44;79;73;41
55549;PMS7003;41397;49.972;18.944;2023-02-22T07:01:46;76;65;42
55549;PMS7003;41397;49.972;18.944;2023-02-22T07:04:48;69;65;38
55549;PMS7003;41397;49.972;18.944;2023-02-22T07:07:50;60;53;35
55549;PMS7003;41397;49.972;18.944;2023-02-22T07:10:53;59;50;31
55549;PMS7003;41397;49.972;18.944;2023-02-22T07:13:55;60;54;36
55549;PMS7003;41397;49.972;18.944;2023-02-22T07:16:56;73;65;39
55549;PMS7003;41397;49.972;18.944;2023-02-22T07:19:58;63;56;36
55549;PMS7003;41397;49.972;18.944;2023-02-22T07:22:59;78;72;44
55549;PMS7003;41397;49.972;18.944;2023-02-22T07:26:01;82;81;47
55549;PMS7003;41397;49.972;18.944;2023-02-22T07:29:05;72;57;38
55549;PMS7003;41397;49.972;18.944;2023-02-22T07:32:06;55;45;38
55549;PMS7003;41397;49.972;18.944;2023-02-22T07:38:21;107;81;47
55549;PMS7003;41397;49.972;18.944;2023-02-22T07:41:22;76;70;45
55549;PMS7003;41397;49.972;18.944;2023-02-22T07:44:24;73;69;46
55549;PMS7003;41397;49.972;18.944;2023-02-22T07:47:25;70;67;38
55549;PMS7003;41397;49.972;18.944;2023-02-22T07:50:29;80;69;42
55549;PMS7003;41397;49.972;18.944;2023-02-22T07:53:32;67;60;35
55549;PMS7003;41397;49.972;18.944;2023-02-22T07:56:34;68;59;33
55549;PMS7003;41397;49.972;18.944;2023-02-22T07:59:35;51;43;29
55549;PMS7003;41397;49.972;18.944;2023-02-22T08:02:37;45;35;23
55549;PMS7003;41397;49.972;18.944;2023-02-22T08:05:39;47;37;23
55549;PMS7003;41397;49.972;18.944;2023-02-22T08:08:42;39;34;24
55549;PMS7003;41397;49.972;18.944;2023-02-22T08:11:44;38;33;21
55549;PMS7003;41397;49.972;18.944;2023-02-22T08:18:08;38;33;21
55549;PMS7003;41397;49.972;18.944;2023-02-22T08:21:11;41;35;22
55549;PMS7003;41397;49.972;18.944;2023-02-22T08:24:13;39;33;22
55549;PMS7003;41397;49.972;18.944;2023-02-22T08:27:14;42;35;22
55549;PMS7003;41397;49.972;18.944;2023-02-22T08:30:17;41;35;22
55549;PMS7003;41397;49.972;18.944;2023-02-22T08:33:22;42;36;20
55549;PMS7003;41397;49.972;18.944;2023-02-22T08:36:25;44;35;21
55549;PMS7003;41397;49.972;18.944;2023-02-22T08:39:29;27;26;19
55549;PMS7003;41397;49.972;18.944;2023-02-22T08:42:30;39;34;20
55549;PMS7003;41397;49.972;18.944;2023-02-22T08:45:32;30;28;19
55549;PMS7003;41397;49.972;18.944;2023-02-22T08:48:33;34;30;22
55549;PMS7003;41397;49.972;18.944;2023-02-22T08:51:35;34;30;20
55549;PMS7003;41397;49.972;18.944;2023-02-22T09:01:18;26;24;16
55549;PMS7003;41397;49.972;18.944;2023-02-22T09:04:25;38;34;22
55549;PMS7003;41397;49.972;18.944;2023-02-22T09:07:26;34;30;22
55549;PMS7003;41397;49.972;18.944;2023-02-22T09:10:29;37;32;19
55549;PMS7003;41397;49.972;18.944;2023-02-22T09:13:33;37;33;24
55549;PMS7003;41397;49.972;18.944;2023-02-22T09:16:49;31;29;19
55549;PMS7003;41397;49.972;18.944;2023-02-22T09:20:01;38;33;20
55549;PMS7003;41397;49.972;18.944;2023-02-22T09:23:20;32;28;17
55549;PMS7003;41397;49.972;18.944;2023-02-22T09:26:38;37;33;22
55549;PMS7003;41397;49.972;18.944;2023-02-22T09:33:39;27;26;17
55549;PMS7003;41397;49.972;18.944;2023-02-22T09:37:22;20;20;14
55549;PMS7003;41397;49.972;18.944;2023-02-22T09:40:36;16;16;12
55549;PMS7003;41397;49.972;18.944;2023-02-22T09:43:46;28;27;16
55549;PMS7003;41397;49.972;18.944;2023-02-22T09:46:56;26;25;13
55549;PMS7003;41397;49.972;18.944;2023-02-22T09:50:08;14;14;10
55549;PMS7003;41397;49.972;18.944;2023-02-22T09:53:25;16;16;12
55549;PMS7003;41397;49.972;18.944;2023-02-22T09:56:50;20;20;14
55549;PMS7003;41397;49.972;18.944;2023-02-22T10:10:43;2;2;1
55549;PMS7003;41397;49.972;18.944;2023-02-22T10:27:50;11;11;5
55549;PMS7003;41397;49.972;18.944;2023-02-22T10:31:17;8;4;3
55549;PMS7003;41397;49.972;18.944;2023-02-22T10:34:24;4;4;2
55549;PMS7003;41397;49.972;18.944;2023-02-22T10:37:29;7;7;4
55549;PMS7003;41397;49.972;18.944;2023-02-22T10:40:34;3;3;1
55549;PMS7003;41397;49.972;18.944;2023-02-22T10:43:39;10;10;4
55549;PMS7003;41397;49.972;18.944;2023-02-22T10:46:44;11;10;7
55549;PMS7003;41397;49.972;18.944;2023-02-22T10:49:48;7;7;6
55549;PMS7003;41397;49.972;18.944;2023-02-22T10:53:16;7;7;5
55549;PMS7003;41397;49.972;18.944;2023-02-22T10:56:18;6;6;4
55549;PMS7003;41397;49.972;18.944;2023-02-22T11:02:37;11;11;7
55549;PMS7003;41397;49.972;18.944;2023-02-22T11:05:39;8;8;7
55549;PMS7003;41397;49.972;18.944;2023-02-22T11:09:24;8;8;7
55549;PMS7003;41397;49.972;18.944;2023-02-22T11:15:42;7;7;7
55549;PMS7003;41397;49.972;18.944;2023-02-22T11:19:38;10;10;7
55549;PMS7003;41397;49.972;18.944;2023-02-22T11:22:36;12;12;6
55549;PMS7003;41397;49.972;18.944;2023-02-22T11:46:57;9;9;5
55549;PMS7003;41397;49.972;18.944;2023-02-22T12:20:52;3;3;3
55549;PMS7003;41397;49.972;18.944;2023-02-22T12:24:16;6;6;5
55549;PMS7003;41397;49.972;18.944;2023-02-22T12:30:29;6;6;5
55549;PMS7003;41397;49.972;18.944;2023-02-22T12:33:47;10;10;7
55549;PMS7003;41397;49.972;18.944;2023-02-22T13:04:54;11;11;7
55549;PMS7003;41397;49.972;18.944;2023-02-22T13:17:58;6;6;6
55549;PMS7003;41397;49.972;18.944;2023-02-22T13:30:52;12;12;6
55549;PMS7003;41397;49.972;18.944;2023-02-22T13:40:41;9;9;7
55549;PMS7003;41397;49.972;18.944;2023-02-22T13:50:32;8;8;7
55549;PMS7003;41397;49.972;18.944;2023-02-22T13:53:48;12;12;10
55549;PMS7003;41397;49.972;18.944;2023-02-22T13:56:56;13;13;11
55549;PMS7003;41397;49.972;18.944;2023-02-22T14:03:27;16;16;10
55549;PMS7003;41397;49.972;18.944;2023-02-22T14:20:01;9;9;6
55549;PMS7003;41397;49.972;18.944;2023-02-22T14:29:58;13;13;11
55549;PMS7003;41397;49.972;18.944;2023-02-22T14:47:05;14;14;10
55549;PMS7003;41397;49.972;18.944;2023-02-22T14:50:13;14;12;8
55549;PMS7003;41397;49.972;18.944;2023-02-22T14:53:30;12;12;10
55549;PMS7003;41397;49.972;18.944;2023-02-22T14:56:45;14;11;9
55549;PMS7003;41397;49.972;18.944;2023-02-22T15:40:24;12;12;8
55549;PMS7003;41397;49.972;18.944;2023-02-22T15:43:34;9;9;8
55549;PMS7003;41397;49.972;18.944;2023-02-22T15:46:36;12;12;8
55549;PMS7003;41397;49.972;18.944;2023-02-22T15:49:39;14;13;10
55549;PMS7003;41397;49.972;18.944;2023-02-22T15:55:57;27;26;16
55549;PMS7003;41397;49.972;18.944;2023-02-22T16:02:27;37;21;11
55549;PMS7003;41397;49.972;18.944;2023-02-22T16:05:46;27;23;17
55549;PMS7003;41397;49.972;18.944;2023-02-22T16:08:55;33;31;19
55549;PMS7003;41397;49.972;18.944;2023-02-22T16:15:14;32;30;19
55549;PMS7003;41397;49.972;18.944;2023-02-22T16:18:25;30;28;17
55549;PMS7003;41397;49.972;18.944;2023-02-22T16:21:31;32;30;18
55549;PMS7003;41397;49.972;18.944;2023-02-22T16:24:42;39;34;21
55549;PMS7003;41397;49.972;18.944;2023-02-22T16:31:01;40;34;18
55549;PMS7003;41397;49.972;18.944;2023-02-22T16:34:06;34;31;21
55549;PMS7003;41397;49.972;18.944;2023-02-22T16:42:04;43;36;22
55549;PMS7003;41397;49.972;18.944;2023-02-22T16:45:14;53;43;28
55549;PMS7003;41397;49.972;18.944;2023-02-22T16:48:23;54;41;29
55549;PMS7003;41397;49.972;18.944;2023-02-22T16:51:26;64;54;33
55549;PMS7003;41397;49.972;18.944;2023-02-22T16:54:51;59;48;32
55549;PMS7003;41397;49.972;18.944;2023-02-22T16:57:49;64;54;32
55549;PMS7003;41397;49.972;18.944;2023-02-22T17:00:55;61;48;30
55549;PMS7003;41397;49.972;18.944;2023-02-22T17:03:57;41;35;20
55549;PMS7003;41397;49.972;18.944;2023-02-22T17:06:58;60;48;30
55549;PMS7003;41397;49.972;18.944;2023-02-22T17:10:02;44;39;25
55549;PMS7003;41397;49.972;18.944;2023-02-22T17:13:04;57;48;28
55549;PMS7003;41397;49.972;18.944;2023-02-22T17:16:10;53;41;24
55549;PMS7003;41397;49.972;18.944;2023-02-22T17:19:19;39;35;23
55549;PMS7003;41397;49.972;18.944;2023-02-22T17:22:23;46;40;25
55549;PMS7003;41397;49.972;18.944;2023-02-22T17:25:28;67;45;29
55549;PMS7003;41397;49.972;18.944;2023-02-22T17:28:34;58;46;27
55549;PMS7003;41397;49.972;18.944;2023-02-22T17:31:36;48;41;25
55549;PMS7003;41397;49.972;18.944;2023-02-22T17:34:37;53;43;27
55549;PMS7003;41397;49.972;18.944;2023-02-22T17:37:40;44;38;25
55549;PMS7003;41397;49.972;18.944;2023-02-22T17:40:41;49;42;28
55549;PMS7003;41397;49.972;18.944;2023-02-22T17:43:47;62;49;33
55549;PMS7003;41397;49.972;18.944;2023-02-22T17:46:51;63;44;29
55549;PMS7003;41397;49.972;18.944;2023-02-22T17:49:58;61;50;33
55549;PMS7003;41397;49.972;18.944;2023-02-22T17:53:02;63;50;32
55549;PMS7003;41397;49.972;18.944;2023-02-22T17:59:13;65;54;34
55549;PMS7003;41397;49.972;18.944;2023-02-22T18:02:14;67;51;33
55549;PMS7003;41397;49.972;18.944;2023-02-22T18:05:16;63;51;34
55549;PMS7003;41397;49.972;18.944;2023-02-22T18:08:18;52;44;29
55549;PMS7003;41397;49.972;18.944;2023-02-22T18:11:36;51;41;25
55549;PMS7003;41397;49.972;18.944;2023-02-22T18:14:41;47;39;24
55549;PMS7003;41397;49.972;18.944;2023-02-22T18:17:46;48;41;26
55549;PMS7003;41397;49.972;18.944;2023-02-22T18:21:12;52;45;27
55549;PMS7003;41397;49.972;18.944;2023-02-22T18:24:21;46;40;25
55549;PMS7003;41397;49.972;18.944;2023-02-22T18:27:27;52;44;29
55549;PMS7003;41397;49.972;18.944;2023-02-22T18:30:37;62;49;31
55549;PMS7003;41397;49.972;18.944;2023-02-22T18:33:50;66;52;33
55549;PMS7003;41397;49.972;18.944;2023-02-22T18:37:05;65;52;31
55549;PMS7003;41397;49.972;18.944;2023-02-22T18:40:33;72;55;35
55549;PMS7003;41397;49.972;18.944;2023-02-22T18:43:49;70;63;37
55549;PMS7003;41397;49.972;18.944;2023-02-22T18:47:00;56;47;31
55549;PMS7003;41397;49.972;18.944;2023-02-22T18:50:01;64;52;32
55549;PMS7003;41397;49.972;18.944;2023-02-22T18:53:03;79;59;37
55549;PMS7003;41397;49.972;18.944;2023-02-22T18:56:19;69;62;38
55549;PMS7003;41397;49.972;18.944;2023-02-22T18:59:21;67;53;32
55549;PMS7003;41397;49.972;18.944;2023-02-22T19:02:23;72;56;34
55549;PMS7003;41397;49.972;18.944;2023-02-22T19:05:31;69;61;35
55549;PMS7003;41397;49.972;18.944;2023-02-22T19:08:38;68;53;38
55549;PMS7003;41397;49.972;18.944;2023-02-22T19:11:47;85;79;44
55549;PMS7003;41397;49.972;18.944;2023-02-22T19:15:04;70;63;35
55549;PMS7003;41397;49.972;18.944;2023-02-22T19:18:12;72;61;38
55549;PMS7003;41397;49.972;18.944;2023-02-22T19:21:18;76;69;38
55549;PMS7003;41397;49.972;18.944;2023-02-22T19:24:20;74;67;38
55549;PMS7003;41397;49.972;18.944;2023-02-22T19:27:29;69;60;36
55549;PMS7003;41397;49.972;18.944;2023-02-22T19:30:32;80;71;41
55549;PMS7003;41397;49.972;18.944;2023-02-22T19:33:33;82;72;42
55549;PMS7003;41397;49.972;18.944;2023-02-22T19:36:41;73;68;41
55549;PMS7003;41397;49.972;18.944;2023-02-22T19:39:47;92;85;46
55549;PMS7003;41397;49.972;18.944;2023-02-22T19:46:17;80;72;42
55549;PMS7003;41397;49.972;18.944;2023-02-22T19:52:52;68;59;38
55549;PMS7003;41397;49.972;18.944;2023-02-22T19:56:03;75;71;40
55549;PMS7003;41397;49.972;18.944;2023-02-22T19:59:36;70;62;37
55549;PMS7003;41397;49.972;18.944;2023-02-22T20:02:56;68;55;35
55549;PMS7003;41397;49.972;18.944;2023-02-22T20:06:06;71;62;36
55549;PMS7003;41397;49.972;18.944;2023-02-22T20:09:12;62;52;34
55549;PMS7003;41397;49.972;18.944;2023-02-22T20:12:17;62;49;31
55549;PMS7003;41397;49.972;18.944;2023-02-22T20:15:18;58;49;30
55549;PMS7003;41397;49.972;18.944;2023-02-22T20:18:26;62;51;32
55549;PMS7003;41397;49.972;18.944;2023-02-22T20:21:31;67;55;32
55549;PMS7003;41397;49.972;18.944;2023-02-22T20:24:38;68;56;34
55549;PMS7003;41397;49.972;18.944;2023-02-22T20:35:33;77;64;37
55549;PMS7003;41397;49.972;18.944;2023-02-22T20:56:35;68;58;32
55549;PMS7003;41397;49.972;18.944;2023-02-22T21:09:48;68;57;35
55549;PMS7003;41397;49.972;18.944;2023-02-22T21:12:55;70;58;35
55549;PMS7003;41397;49.972;18.944;2023-02-22T21:16:00;64;53;32
55549;PMS7003;41397;49.972;18.944;2023-02-22T21:22:28;70;58;34
55549;PMS7003;41397;49.972;18.944;2023-02-22T21:28:37;65;54;33
55549;PMS7003;41397;49.972;18.944;2023-02-22T21:31:39;65;55;33
55549;PMS7003;41397;49.972;18.944;2023-02-22T21:34:41;73;60;35
55549;PMS7003;41397;49.972;18.944;2023-02-22T21:37:42;70;60;35
55549;PMS7003;41397;49.972;18.944;2023-02-22T21:40:46;65;50;31
55549;PMS7003;41397;49.972;18.944;2023-02-22T21:43:58;71;62;34
55549;PMS7003;41397;49.972;18.944;2023-02-22T21:47:06;71;59;36
55549;PMS7003;41397;49.972;18.944;2023-02-22T21:50:07;68;55;33
55549;PMS7003;41397;49.972;18.944;2023-02-22T21:53:10;62;53;34
55549;PMS7003;41397;49.972;18.944;2023-02-22T21:59:28;63;49;32
55549;PMS7003;41397;49.972;18.944;2023-02-22T22:02:32;53;45;33
55549;PMS7003;41397;49.972;18.944;2023-02-22T22:05:38;66;54;30
55549;PMS7003;41397;49.972;18.944;2023-02-22T22:08:45;62;50;31
55549;PMS7003;41397;49.972;18.944;2023-02-22T22:11:51;62;51;30
55549;PMS7003;41397;49.972;18.944;2023-02-22T22:14:57;63;48;34
55549;PMS7003;41397;49.972;18.944;2023-02-22T22:17:59;57;46;30
55549;PMS7003;41397;49.972;18.944;2023-02-22T22:21:11;62;51;34
55549;PMS7003;41397;49.972;18.944;2023-02-22T22:24:17;69;50;32
55549;PMS7003;41397;49.972;18.944;2023-02-22T22:27:20;52;40;23
55549;PMS7003;41397;49.972;18.944;2023-02-22T22:30:22;75;58;33
55549;PMS7003;41397;49.972;18.944;2023-02-22T22:33:23;53;42;33
55549;PMS7003;41397;49.972;18.944;2023-02-22T22:36:26;67;58;38
55549;PMS7003;41397;49.972;18.944;2023-02-22T22:39:27;63;50;33
55549;PMS7003;41397;49.972;18.944;2023-02-22T22:42:29;60;51;31
55549;PMS7003;41397;49.972;18.944;2023-02-22T22:45:30;64;51;33
55549;PMS7003;41397;49.972;18.944;2023-02-22T22:48:33;72;61;38
55549;PMS7003;41397;49.972;18.944;2023-02-22T22:51:39;68;55;35
55549;PMS7003;41397;49.972;18.944;2023-02-22T22:54:42;55;46;30
55549;PMS7003;41397;49.972;18.944;2023-02-22T22:57:49;64;51;32
55549;PMS7003;41397;49.972;18.944;2023-02-22T23:00:51;60;47;30
55549;PMS7003;41397;49.972;18.944;2023-02-22T23:04:03;69;60;36
55549;PMS7003;41397;49.972;18.944;2023-02-22T23:07:07;80;65;36
55549;PMS7003;41397;49.972;18.944;2023-02-22T23:10:09;69;58;36
55549;PMS7003;41397;49.972;18.944;2023-02-22T23:13:17;56;47;31
55549;PMS7003;41397;49.972;18.944;2023-02-22T23:16:21;80;60;36
55549;PMS7003;41397;49.972;18.944;2023-02-22T23:19:23;64;52;35
55549;PMS7003;41397;49.972;18.944;2023-02-22T23:22:24;61;52;34
55549;PMS7003;41397;49.972;18.944;2023-02-22T23:25:30;56;42;27
55549;PMS7003;41397;49.972;18.944;2023-02-22T23:28:32;62;48;31
55549;PMS7003;41397;49.972;18.944;2023-02-22T23:31:33;57;46;28
55549;PMS7003;41397;49.972;18.944;2023-02-22T23:34:39;50;42;26
55549;PMS7003;41397;49.972;18.944;2023-02-22T23:37:41;53;44;29
55549;PMS7003;41397;49.972;18.944;2023-02-22T23:40:45;49;41;26
55549;PMS7003;41397;49.972;18.944;2023-02-22T23:43:47;46;39;27
55549;PMS7003;41397;49.972;18.944;2023-02-22T23:46:49;49;41;26
55549;PMS7003;41397;49.972;18.944;2023-02-22T23:49:54;50;41;27
55549;PMS7003;41397;49.972;18.944;2023-02-22T23:53:01;46;37;23
55549;PMS7003;41397;49.972;18.944;2023-02-22T23:56:07;44;37;24
55549;PMS7003;41397;49.972;18.944;2023-02-22T23:59:12;37;33;22
